createdAt,value
2022-12-31T00:01:48.280Z,12.28
2022-12-31T00:04:15.893Z,12.38
2022-12-31T00:06:43.456Z,12.39
2022-12-31T00:09:11.228Z,12.36
2022-12-31T00:11:39.290Z,12.47
2022-12-31T00:14:10.235Z,12.50
2022-12-31T00:16:40.399Z,12.56
2022-12-31T00:19:13.651Z,12.52
2022-12-31T00:21:41.270Z,12.52
2022-12-31T00:24:09.454Z,12.51
2022-12-31T00:26:37.118Z,12.59
2022-12-31T00:29:05.586Z,12.52
2022-12-31T00:31:36.231Z,12.54
2022-12-31T00:34:04.275Z,12.59
2022-12-31T00:36:33.494Z,12.51
2022-12-31T00:39:02.125Z,12.55
2022-12-31T00:41:29.896Z,12.64
2022-12-31T00:43:57.743Z,12.67
2022-12-31T00:46:26.049Z,12.67
2022-12-31T00:48:55.583Z,12.78
2022-12-31T00:51:28.024Z,12.78
2022-12-31T00:53:55.887Z,12.84
2022-12-31T00:56:27.401Z,12.83
2022-12-31T00:58:55.046Z,12.82
2022-12-31T01:01:24.363Z,12.91
2022-12-31T01:03:53.440Z,12.89
2022-12-31T01:06:22.754Z,12.90
2022-12-31T01:08:51.095Z,12.95
2022-12-31T01:11:22.834Z,12.98
2022-12-31T01:13:53.030Z,13.03
2022-12-31T01:16:23.408Z,12.97
2022-12-31T01:18:51.445Z,12.96
2022-12-31T01:21:19.715Z,12.96
2022-12-31T01:23:48.909Z,12.96
2022-12-31T01:26:18.025Z,12.97
2022-12-31T01:28:45.590Z,13.03
2022-12-31T01:31:15.090Z,13.06
2022-12-31T01:33:43.110Z,13.01
2022-12-31T01:36:12.751Z,13.12
2022-12-31T01:38:40.536Z,13.07
2022-12-31T01:41:12.538Z,13.07
2022-12-31T01:43:49.474Z,13.14
2022-12-31T01:46:24.481Z,13.15
2022-12-31T01:48:54.288Z,13.16
2022-12-31T01:51:22.158Z,13.18
2022-12-31T01:53:50.359Z,13.18
2022-12-31T01:56:19.996Z,13.27
2022-12-31T01:58:50.638Z,13.21
2022-12-31T02:01:21.429Z,13.23
2022-12-31T02:03:49.075Z,13.27
2022-12-31T02:06:20.936Z,13.32
2022-12-31T02:08:48.815Z,13.41
2022-12-31T02:11:28.678Z,13.35
2022-12-31T02:13:58.906Z,13.27
2022-12-31T02:16:32.639Z,13.25
2022-12-31T02:19:07.495Z,13.29
2022-12-31T02:21:57.780Z,13.47
2022-12-31T02:24:40.994Z,13.47
2022-12-31T02:27:14.026Z,13.58
2022-12-31T02:30:05.932Z,13.56
2022-12-31T02:32:39.977Z,13.62
2022-12-31T02:35:11.927Z,13.71
2022-12-31T02:37:40.700Z,13.70
2022-12-31T02:40:11.308Z,13.73
2022-12-31T02:42:38.780Z,13.76
2022-12-31T02:45:09.260Z,13.77
2022-12-31T02:47:49.613Z,13.68
2022-12-31T02:50:27.696Z,13.93
2022-12-31T02:52:59.944Z,13.87
2022-12-31T02:55:35.116Z,13.96
2022-12-31T02:58:09.139Z,13.90
2022-12-31T03:01:00.373Z,13.85
2022-12-31T03:03:28.669Z,13.88
2022-12-31T03:05:56.793Z,13.76
2022-12-31T03:08:25.273Z,13.79
2022-12-31T03:10:52.961Z,13.87
2022-12-31T03:13:19.560Z,13.80
2022-12-31T03:15:48.429Z,13.82
2022-12-31T03:18:17.217Z,13.97
2022-12-31T03:21:03.885Z,13.98
2022-12-31T03:23:34.170Z,13.94
2022-12-31T03:26:01.135Z,13.95
2022-12-31T03:28:30.538Z,13.99
2022-12-31T03:31:01.396Z,13.99
2022-12-31T03:33:32.725Z,13.92
2022-12-31T03:36:00.239Z,13.95
2022-12-31T03:38:27.715Z,14.02
2022-12-31T03:40:55.217Z,13.98
2022-12-31T03:43:22.919Z,13.93
2022-12-31T03:45:52.309Z,13.98
2022-12-31T03:48:21.741Z,13.98
2022-12-31T03:50:49.325Z,13.96
2022-12-31T03:53:17.204Z,13.94
2022-12-31T03:55:44.915Z,13.91
2022-12-31T03:58:12.477Z,13.97
2022-12-31T04:00:40.016Z,14.02
2022-12-31T04:03:07.609Z,14.06
2022-12-31T04:05:36.518Z,14.06
2022-12-31T04:08:04.068Z,14.04
2022-12-31T04:10:32.012Z,14.11
2022-12-31T04:13:02.377Z,14.09
2022-12-31T04:15:29.961Z,14.09
2022-12-31T04:17:57.435Z,14.06
2022-12-31T04:20:25.028Z,14.18
2022-12-31T04:22:53.869Z,14.07
2022-12-31T04:25:21.428Z,14.12
2022-12-31T04:27:48.889Z,14.12
2022-12-31T04:30:16.577Z,14.18
2022-12-31T04:32:44.085Z,14.16
2022-12-31T04:35:12.249Z,14.26
2022-12-31T04:37:39.919Z,14.24
2022-12-31T04:40:10.001Z,14.23
2022-12-31T04:42:37.664Z,14.28
2022-12-31T04:45:06.064Z,14.28
2022-12-31T04:47:33.561Z,14.29
2022-12-31T04:50:01.039Z,14.40
2022-12-31T04:52:28.512Z,14.38
2022-12-31T04:54:56.001Z,14.35
2022-12-31T04:57:24.833Z,14.35
2022-12-31T04:59:52.316Z,14.45
2022-12-31T05:02:19.977Z,14.40
2022-12-31T05:04:47.593Z,14.43
2022-12-31T05:07:15.095Z,14.50
2022-12-31T05:09:42.579Z,14.52
2022-12-31T05:12:10.067Z,14.58
2022-12-31T05:14:38.893Z,14.52
2022-12-31T05:17:06.372Z,14.59
2022-12-31T05:19:33.875Z,14.63
2022-12-31T05:22:19.175Z,14.69
2022-12-31T05:24:46.655Z,14.67
2022-12-31T05:27:14.105Z,14.66
2022-12-31T05:29:42.893Z,14.76
2022-12-31T05:32:10.359Z,14.82
2022-12-31T05:34:37.830Z,14.81
2022-12-31T05:37:05.329Z,14.97
2022-12-31T05:39:32.824Z,14.88
2022-12-31T05:42:00.281Z,14.87
2022-12-31T05:44:27.857Z,14.82
2022-12-31T05:46:56.680Z,14.87
2022-12-31T05:49:24.215Z,14.78
2022-12-31T05:51:51.656Z,14.89
2022-12-31T05:54:19.309Z,14.83
2022-12-31T05:56:46.786Z,14.84
2022-12-31T05:59:14.263Z,14.84
2022-12-31T06:01:41.817Z,14.89
2022-12-31T06:04:10.767Z,14.66
2022-12-31T06:06:38.234Z,14.69
2022-12-31T06:09:05.793Z,14.85
2022-12-31T06:11:33.303Z,14.73
2022-12-31T06:14:00.772Z,14.72
2022-12-31T06:16:28.377Z,14.71
2022-12-31T06:18:56.208Z,14.75
2022-12-31T06:21:25.022Z,14.73
2022-12-31T06:23:52.495Z,14.74
2022-12-31T06:26:19.997Z,14.75
2022-12-31T06:28:47.456Z,14.75
2022-12-31T06:31:15.868Z,14.77
2022-12-31T06:33:43.978Z,14.72
2022-12-31T06:36:14.293Z,14.78
2022-12-31T06:38:44.205Z,14.82
2022-12-31T06:41:13.031Z,14.84
2022-12-31T06:43:41.523Z,14.82
2022-12-31T06:46:11.192Z,14.93
2022-12-31T06:48:39.335Z,14.96
2022-12-31T06:51:13.406Z,14.90
2022-12-31T06:53:45.880Z,14.82
2022-12-31T06:56:16.908Z,14.86
2022-12-31T06:58:45.861Z,14.89
2022-12-31T07:01:30.477Z,14.85
2022-12-31T07:04:02.050Z,14.84
2022-12-31T07:06:32.400Z,14.77
2022-12-31T07:09:06.553Z,14.89
2022-12-31T07:11:40.205Z,14.89
2022-12-31T07:14:19.461Z,14.95
2022-12-31T07:16:54.354Z,14.90
2022-12-31T07:19:29.998Z,14.83
2022-12-31T07:21:59.486Z,14.79
2022-12-31T07:24:29.286Z,14.81
2022-12-31T07:27:13.006Z,14.85
2022-12-31T07:29:49.691Z,14.91
2022-12-31T07:32:26.847Z,14.84
2022-12-31T07:35:01.603Z,14.84
2022-12-31T07:37:35.717Z,14.92
2022-12-31T07:40:12.363Z,14.94
2022-12-31T07:42:43.484Z,14.96
2022-12-31T07:45:16.035Z,14.96
2022-12-31T07:47:44.063Z,15.03
2022-12-31T07:50:15.351Z,15.04
2022-12-31T07:52:43.553Z,15.01
2022-12-31T07:55:12.597Z,14.98
2022-12-31T07:57:48.126Z,15.02
2022-12-31T08:00:16.937Z,14.99
2022-12-31T08:02:58.144Z,14.96
2022-12-31T08:05:29.355Z,14.97
2022-12-31T08:08:00.294Z,15.00
2022-12-31T08:10:34.530Z,14.97
2022-12-31T08:13:04.535Z,14.92
2022-12-31T08:15:32.566Z,14.86
2022-12-31T08:18:00.384Z,14.88
2022-12-31T08:20:28.205Z,14.85
2022-12-31T08:23:11.170Z,14.90
2022-12-31T08:25:48.514Z,14.90
2022-12-31T08:28:20.247Z,14.87
2022-12-31T08:30:55.104Z,14.95
2022-12-31T08:33:27.106Z,14.86
2022-12-31T08:36:05.142Z,14.82
2022-12-31T08:38:35.674Z,14.79
2022-12-31T08:41:11.963Z,14.87
2022-12-31T08:43:50.178Z,14.87
2022-12-31T08:46:20.626Z,14.88
2022-12-31T08:48:49.322Z,14.83
2022-12-31T08:51:21.106Z,14.79
2022-12-31T08:53:49.098Z,14.81
2022-12-31T08:56:26.543Z,14.83
2022-12-31T08:59:00.227Z,14.92
2022-12-31T09:01:29.417Z,14.86
2022-12-31T09:04:04.802Z,14.90
2022-12-31T09:06:35.119Z,14.94
2022-12-31T09:09:07.367Z,14.95
2022-12-31T09:11:50.891Z,14.96
2022-12-31T09:14:33.131Z,14.92
2022-12-31T09:17:04.697Z,14.94
2022-12-31T09:19:32.147Z,14.97
2022-12-31T09:22:00.174Z,14.91
2022-12-31T09:24:28.308Z,14.94
2022-12-31T09:27:05.711Z,15.02
2022-12-31T09:29:42.517Z,14.97
2022-12-31T09:32:19.113Z,15.00
2022-12-31T09:34:51.071Z,15.09
2022-12-31T09:37:23.283Z,15.06
2022-12-31T09:39:51.047Z,15.08
2022-12-31T09:42:48.308Z,15.10
2022-12-31T09:45:45.734Z,15.06
2022-12-31T09:48:47.022Z,15.06
2022-12-31T09:51:25.838Z,15.03
2022-12-31T09:54:24.927Z,15.02
2022-12-31T09:57:13.440Z,15.03
2022-12-31T09:59:47.581Z,15.01
2022-12-31T10:02:23.885Z,15.05
2022-12-31T10:05:00.513Z,15.10
2022-12-31T10:07:36.152Z,15.22
2022-12-31T10:10:11.657Z,15.21
2022-12-31T10:13:01.897Z,15.23
2022-12-31T10:15:38.225Z,15.23
2022-12-31T10:18:14.068Z,15.21
2022-12-31T10:20:52.542Z,15.18
2022-12-31T10:24:02.193Z,15.23
2022-12-31T10:26:42.392Z,15.30
2022-12-31T10:29:19.861Z,15.31
2022-12-31T10:31:54.592Z,15.34
2022-12-31T10:34:27.594Z,15.32
2022-12-31T10:36:56.836Z,15.34
2022-12-31T10:39:33.162Z,15.38
2022-12-31T10:42:45.103Z,15.37
2022-12-31T10:45:42.403Z,15.44
2022-12-31T10:48:38.284Z,15.51
2022-12-31T10:51:25.038Z,15.56
2022-12-31T10:54:10.699Z,15.57
2022-12-31T10:57:31.763Z,15.61
2022-12-31T11:00:26.263Z,15.60
2022-12-31T11:03:38.307Z,15.69
2022-12-31T11:06:27.117Z,15.69
2022-12-31T11:09:27.430Z,15.73
2022-12-31T11:12:02.947Z,15.75
2022-12-31T11:14:47.468Z,15.90
2022-12-31T11:17:29.546Z,15.84
2022-12-31T11:20:04.491Z,15.87
2022-12-31T11:22:43.044Z,15.91
2022-12-31T11:25:31.026Z,15.85
2022-12-31T11:28:16.059Z,15.85
2022-12-31T11:30:58.389Z,15.92
2022-12-31T11:33:34.067Z,15.97
2022-12-31T11:36:12.704Z,15.96
2022-12-31T11:38:44.321Z,16.06
2022-12-31T11:41:17.664Z,16.04
2022-12-31T11:43:52.291Z,16.07
2022-12-31T11:46:45.305Z,16.10
2022-12-31T11:49:21.612Z,16.14
2022-12-31T11:52:02.933Z,16.18
2022-12-31T11:54:51.391Z,16.23
2022-12-31T11:57:25.984Z,16.19
2022-12-31T11:59:57.041Z,16.22
2022-12-31T12:02:27.107Z,16.33
2022-12-31T12:04:56.059Z,16.25
2022-12-31T12:07:25.097Z,16.36
2022-12-31T12:09:53.993Z,16.38
2022-12-31T12:12:21.504Z,16.34
2022-12-31T12:14:53.975Z,16.39
2022-12-31T12:17:31.704Z,16.41
2022-12-31T12:20:03.142Z,16.44
2022-12-31T12:22:32.671Z,16.43
2022-12-31T12:25:05.654Z,16.44
2022-12-31T12:27:36.193Z,16.48
2022-12-31T12:30:11.618Z,16.52
2022-12-31T12:32:39.275Z,16.41
2022-12-31T12:35:17.727Z,16.40
2022-12-31T12:37:46.544Z,16.32
2022-12-31T12:40:21.940Z,16.32
2022-12-31T12:42:49.986Z,16.34
2022-12-31T12:45:19.341Z,16.40
2022-12-31T12:47:48.856Z,16.32
2022-12-31T12:50:18.004Z,16.26
2022-12-31T12:53:08.664Z,16.40
2022-12-31T12:55:42.862Z,16.27
2022-12-31T12:58:19.685Z,16.21
2022-12-31T13:00:52.453Z,16.33
2022-12-31T13:03:36.147Z,16.24
2022-12-31T13:06:15.335Z,16.20
2022-12-31T13:09:04.974Z,16.19
2022-12-31T13:11:37.926Z,16.17
2022-12-31T13:14:14.268Z,16.19
2022-12-31T13:16:46.215Z,16.22
2022-12-31T13:19:20.350Z,16.27
2022-12-31T13:21:54.162Z,16.27
2022-12-31T13:24:48.777Z,16.20
2022-12-31T13:27:21.218Z,16.31
2022-12-31T13:29:49.392Z,16.33
2022-12-31T13:32:20.036Z,16.31
2022-12-31T13:34:49.405Z,16.32
2022-12-31T13:37:26.020Z,16.27
2022-12-31T13:40:01.209Z,16.25
2022-12-31T13:42:33.711Z,16.34
2022-12-31T13:45:03.973Z,16.31
2022-12-31T13:47:35.159Z,16.28
2022-12-31T13:50:14.177Z,16.36
2022-12-31T13:52:47.455Z,16.33
2022-12-31T13:55:19.435Z,16.34
2022-12-31T13:57:50.122Z,16.27
2022-12-31T14:00:23.903Z,16.25
2022-12-31T14:02:57.978Z,16.39
2022-12-31T14:05:29.265Z,16.32
2022-12-31T14:07:59.140Z,16.30
2022-12-31T14:10:36.089Z,16.43
2022-12-31T14:13:14.176Z,16.40
2022-12-31T14:15:49.022Z,16.36
2022-12-31T14:18:24.579Z,16.22
2022-12-31T14:21:00.204Z,16.35
2022-12-31T14:23:34.893Z,16.25
2022-12-31T14:26:06.380Z,16.24
2022-12-31T14:28:44.663Z,16.32
2022-12-31T14:31:20.339Z,16.19
2022-12-31T14:33:52.975Z,16.17
2022-12-31T14:36:33.619Z,16.08
2022-12-31T14:39:13.913Z,16.13
2022-12-31T14:41:53.085Z,16.09
2022-12-31T14:44:28.460Z,16.07
2022-12-31T14:47:07.741Z,16.09
2022-12-31T14:49:42.160Z,16.09
2022-12-31T14:52:17.788Z,16.09
2022-12-31T14:54:45.443Z,16.04
2022-12-31T14:57:24.763Z,16.03
2022-12-31T14:59:53.729Z,15.93
2022-12-31T15:02:27.997Z,15.85
2022-12-31T15:05:11.121Z,15.90
2022-12-31T15:07:43.502Z,15.84
2022-12-31T15:10:16.631Z,15.86
2022-12-31T15:12:54.302Z,15.88
2022-12-31T15:15:33.139Z,15.92
2022-12-31T15:18:13.780Z,15.88
2022-12-31T15:21:10.396Z,15.82
2022-12-31T15:23:38.841Z,15.73
2022-12-31T15:26:08.421Z,15.69
2022-12-31T15:28:39.511Z,15.76
2022-12-31T15:31:18.550Z,15.72
2022-12-31T15:33:57.539Z,15.71
2022-12-31T15:36:26.731Z,15.59
2022-12-31T15:39:06.503Z,15.64
2022-12-31T15:41:42.909Z,15.41
2022-12-31T15:44:24.879Z,15.38
2022-12-31T15:46:56.360Z,15.35
2022-12-31T15:49:25.006Z,15.25
2022-12-31T15:52:00.446Z,15.14
2022-12-31T15:54:32.498Z,15.14
2022-12-31T15:57:05.649Z,15.13
2022-12-31T15:59:42.715Z,15.13
2022-12-31T16:02:21.239Z,15.05
2022-12-31T16:04:49.271Z,14.98
2022-12-31T16:07:17.109Z,15.03
2022-12-31T16:09:48.551Z,15.00
2022-12-31T16:12:20.616Z,14.97
2022-12-31T16:14:52.470Z,14.96
2022-12-31T16:17:27.798Z,14.86
2022-12-31T16:19:58.288Z,14.92
2022-12-31T16:22:28.104Z,14.83
2022-12-31T16:27:44.975Z,14.86
2022-12-31T16:30:29.414Z,14.88
2022-12-31T16:33:01.184Z,14.94
2022-12-31T16:35:30.795Z,14.92
2022-12-31T16:38:09.843Z,14.91
2022-12-31T16:40:37.462Z,14.93
2022-12-31T16:43:06.603Z,14.76
2022-12-31T16:45:37.015Z,14.78
2022-12-31T16:48:16.361Z,14.89
2022-12-31T16:50:46.664Z,14.84
2022-12-31T16:53:17.954Z,14.73
2022-12-31T16:55:52.754Z,14.75
2022-12-31T16:58:27.135Z,14.64
2022-12-31T17:00:57.336Z,14.65
2022-12-31T17:03:26.388Z,14.60
2022-12-31T17:06:00.362Z,14.65
2022-12-31T17:08:29.655Z,14.58
2022-12-31T17:10:57.522Z,14.61
2022-12-31T17:13:30.867Z,14.62
2022-12-31T17:16:00.486Z,14.61
2022-12-31T17:18:31.918Z,14.56
2022-12-31T17:21:07.961Z,14.52
2022-12-31T17:23:36.820Z,14.46
2022-12-31T17:26:10.539Z,14.42
2022-12-31T17:28:43.737Z,14.35
2022-12-31T17:31:32.043Z,14.35
2022-12-31T17:34:18.465Z,14.34
2022-12-31T17:36:56.714Z,14.19
2022-12-31T17:39:27.170Z,14.17
2022-12-31T17:42:00.427Z,14.27
2022-12-31T17:44:29.513Z,14.26
2022-12-31T17:46:59.327Z,14.17
2022-12-31T17:49:33.332Z,14.16
2022-12-31T17:52:01.217Z,14.18
2022-12-31T17:54:29.221Z,14.22
2022-12-31T17:56:57.141Z,14.27
2022-12-31T17:59:29.733Z,14.13
2022-12-31T18:02:02.235Z,14.15
2022-12-31T18:04:30.045Z,14.26
2022-12-31T18:06:57.638Z,14.14
2022-12-31T18:09:26.359Z,14.04
2022-12-31T18:11:56.947Z,14.08
2022-12-31T18:14:28.896Z,14.03
2022-12-31T18:16:56.463Z,14.11
2022-12-31T18:22:15.706Z,14.16
2022-12-31T18:24:43.331Z,14.13
2022-12-31T18:27:15.819Z,14.16
2022-12-31T18:29:43.375Z,14.27
2022-12-31T18:32:21.411Z,14.23
2022-12-31T18:34:50.623Z,14.20
2022-12-31T18:37:21.960Z,14.19
2022-12-31T18:39:50.099Z,14.12
2022-12-31T18:42:19.100Z,14.26
2022-12-31T18:44:46.970Z,14.32
2022-12-31T18:47:15.517Z,14.32
2022-12-31T18:49:44.737Z,14.34
2022-12-31T18:52:15.614Z,14.28
2022-12-31T18:54:43.369Z,14.18
2022-12-31T18:57:12.153Z,14.19
2022-12-31T18:59:39.823Z,14.18
2022-12-31T19:02:13.721Z,14.16
2022-12-31T19:04:41.392Z,14.15
2022-12-31T19:07:09.139Z,14.05
2022-12-31T19:09:46.702Z,13.99
2022-12-31T19:12:15.986Z,14.00
2022-12-31T19:14:43.587Z,13.97
2022-12-31T19:17:11.183Z,13.87
2022-12-31T19:19:38.699Z,13.90
2022-12-31T19:22:06.252Z,13.83
2022-12-31T19:24:33.823Z,13.81
2022-12-31T19:27:03.051Z,13.77
2022-12-31T19:29:30.629Z,13.76
2022-12-31T19:32:01.079Z,13.72
2022-12-31T19:34:28.768Z,13.71
2022-12-31T19:36:56.411Z,13.74
2022-12-31T19:39:23.979Z,13.72
2022-12-31T19:41:58.372Z,13.64
2022-12-31T19:44:27.980Z,13.68
2022-12-31T19:46:55.711Z,13.61
2022-12-31T19:49:23.379Z,13.58
2022-12-31T19:51:52.722Z,13.57
2022-12-31T19:54:20.399Z,13.58
2022-12-31T19:56:48.042Z,13.73
2022-12-31T19:59:17.334Z,13.63
2022-12-31T20:01:47.641Z,13.53
2022-12-31T20:04:15.341Z,13.58
2022-12-31T20:06:42.885Z,13.46
2022-12-31T20:09:12.087Z,13.46
2022-12-31T20:11:39.666Z,13.64
2022-12-31T20:14:07.239Z,13.55
2022-12-31T20:16:34.861Z,13.34
2022-12-31T20:19:04.154Z,13.35
2022-12-31T20:21:31.811Z,13.34
2022-12-31T20:24:23.915Z,13.27
2022-12-31T20:26:52.370Z,13.34
2022-12-31T20:29:20.222Z,13.29
2022-12-31T20:31:48.147Z,13.21
2022-12-31T20:34:18.609Z,13.14
2022-12-31T20:36:46.523Z,13.16
2022-12-31T20:39:15.153Z,13.15
2022-12-31T20:41:42.820Z,13.04
2022-12-31T20:44:10.707Z,13.00
2022-12-31T20:46:38.457Z,12.95
2022-12-31T20:49:06.423Z,12.85
2022-12-31T20:51:35.897Z,12.90
2022-12-31T20:54:05.257Z,12.86
2022-12-31T20:56:36.391Z,12.92
2022-12-31T20:59:04.794Z,12.85
2022-12-31T21:01:55.659Z,12.80
2022-12-31T21:04:20.460Z,12.84
2022-12-31T21:06:49.607Z,12.83
2022-12-31T21:09:17.201Z,12.82
2022-12-31T21:12:02.207Z,12.82
2022-12-31T21:14:29.793Z,12.76
2022-12-31T21:16:57.388Z,12.76
2022-12-31T21:19:24.946Z,12.76
2022-12-31T21:21:53.968Z,12.80
2022-12-31T21:24:25.744Z,12.76
2022-12-31T21:26:57.848Z,12.81
2022-12-31T21:29:27.842Z,12.80
2022-12-31T21:31:58.925Z,12.76
2022-12-31T21:34:26.576Z,12.74
2022-12-31T21:36:55.547Z,12.76
2022-12-31T21:39:23.254Z,12.81
2022-12-31T21:41:53.569Z,12.82
2022-12-31T21:44:22.349Z,12.82
2022-12-31T21:47:24.852Z,12.91
2022-12-31T21:49:38.064Z,12.95
2022-12-31T21:52:24.537Z,12.88
2022-12-31T21:55:06.098Z,12.96
2022-12-31T21:57:51.945Z,12.93
2022-12-31T22:00:42.708Z,12.83
2022-12-31T22:03:28.579Z,12.82
2022-12-31T22:06:02.862Z,12.73
2022-12-31T22:08:32.170Z,12.71
2022-12-31T22:10:59.710Z,12.72
2022-12-31T22:13:27.421Z,12.73
2022-12-31T22:16:03.917Z,12.67
2022-12-31T22:18:34.950Z,12.63
2022-12-31T22:21:04.160Z,12.59
2022-12-31T22:23:34.148Z,12.52
2022-12-31T22:26:02.205Z,12.48
2022-12-31T22:28:39.133Z,12.39
2022-12-31T22:31:08.118Z,12.48
2022-12-31T22:33:35.821Z,12.24
2022-12-31T22:36:05.579Z,12.26
2022-12-31T22:38:35.193Z,12.19
2022-12-31T22:41:07.713Z,12.07
2022-12-31T22:43:38.355Z,12.09
2022-12-31T22:46:10.707Z,12.10
2022-12-31T22:48:38.426Z,11.81
2022-12-31T22:51:06.340Z,11.74
2022-12-31T22:53:35.401Z,11.87
2022-12-31T22:56:04.978Z,11.78
2022-12-31T22:58:32.617Z,11.71
2022-12-31T23:01:00.281Z,11.79
2022-12-31T23:03:29.360Z,11.75
2022-12-31T23:05:56.908Z,11.66
2022-12-31T23:08:24.603Z,11.58
2022-12-31T23:11:02.119Z,11.58
2022-12-31T23:13:51.086Z,11.51
2022-12-31T23:16:39.602Z,11.56
2022-12-31T23:19:25.044Z,11.48
2022-12-31T23:22:10.843Z,11.39
2022-12-31T23:24:39.755Z,11.42
2022-12-31T23:27:09.303Z,11.50
2022-12-31T23:29:45.596Z,11.41
2022-12-31T23:32:14.709Z,11.36
2022-12-31T23:34:42.392Z,11.35
2022-12-31T23:37:09.918Z,11.30
2022-12-31T23:39:37.530Z,11.31
2022-12-31T23:42:05.315Z,11.23
2022-12-31T23:44:34.310Z,11.26
2022-12-31T23:47:01.878Z,11.16
2022-12-31T23:49:29.461Z,11.04
2022-12-31T23:51:57.159Z,11.05
2022-12-31T23:54:24.774Z,11.10
2022-12-31T23:56:52.388Z,11.06
2022-12-31T23:59:20.202Z,11.09
